Pu Ze — V3YX4 — position and weather

sailwx.info

Track history (hours):
 
Tides and Currents Weather Stations Pressure Air Temp Water Temp Dewpoint Dewpoint Depression Visibility Wind Speed Wind Dir Waves Ship Positions

Pu Ze

Last reported at 2018-Jul-07 22:13 UTC. Time now 2018-Jul-22 04:46 UTC.
Position N 35°04' E 129°14'.
Warning: this ship's position is 14 days out of date.

Length 76 m; draft 3.8 m.

Type: Cargo ship. MMSI: 312305000.

Date/timePositionNaut miles runAvg speedWind from/ knotsBaromVisibWave heightAir tempDewpointWater temp
2018-Jul-07 22:13N 35°04' E 129°14'2 9.9
2018-Jul-07 22:00N 35°03' E 129°13'  
2018-Jul-05 15:37N 38°27' E 121°07'211.6
2018-Jul-05 15:28N 38°27' E 121°05'611.6
2018-Jul-05 14:59N 38°31' E 120°59'1311.6
2018-Jul-05 13:51N 38°36' E 120°43'511.8
2018-Jul-05 13:25N 38°36' E 120°37'511.6
2018-Jul-05 12:58N 38°37' E 120°30'511.4
2018-Jul-05 12:30N 38°38' E 120°23'611.1
2018-Jul-05 12:00N 38°38' E 120°16'611.2
2018-Jul-05 11:30N 38°39' E 120°09'511.0
2018-Jul-05 11:00N 38°40' E 120°02'610.7
2018-Jul-05 10:28N 38°40' E 119°55'510.4
2018-Jul-05 09:58N 38°41' E 119°48'710.4
2018-Jul-05 09:16N 38°42' E 119°39'410.5
2018-Jul-05 08:55N 38°42' E 119°34'  
2018-Jul-03 01:57N 38°08' E 120°17'511.5
2018-Jul-03 01:30N 38°05' E 120°23'510.9
2018-Jul-03 01:00N 38°04' E 120°29'511.0
2018-Jul-03 00:30N 38°03' E 120°36'510.5
2018-Jul-03 00:00N 38°02' E 120°43'611.1
2018-Jul-02 23:30N 38°01' E 120°50'611.3
2018-Jul-02 22:59N 37°60' E 120°57'  
Track history (hours):
 
Tides and Currents Weather Stations Pressure Air Temp Water Temp Dewpoint Dewpoint Depression Visibility Wind Speed Wind Dir Waves Ship Positions

Pu Ze

Last reported at 2018-Jul-07 22:13 UTC. Time now 2018-Jul-22 04:46 UTC.
Position N 35°04' E 129°14'.
Warning: this ship's position is 14 days out of date.

Length 76 m; draft 3.8 m.

Type: Cargo ship. MMSI: 312305000.

Date/timePositionNaut miles runAvg speedWind from/ knotsBaromVisibWave heightAir tempDewpointWater temp
2018-Jul-07 22:13N 35°04' E 129°14'2 9.9
2018-Jul-07 22:00N 35°03' E 129°13'  
2018-Jul-05 15:37N 38°27' E 121°07'211.6
2018-Jul-05 15:28N 38°27' E 121°05'611.6
2018-Jul-05 14:59N 38°31' E 120°59'1311.6
2018-Jul-05 13:51N 38°36' E 120°43'511.8
2018-Jul-05 13:25N 38°36' E 120°37'511.6
2018-Jul-05 12:58N 38°37' E 120°30'511.4
2018-Jul-05 12:30N 38°38' E 120°23'611.1
2018-Jul-05 12:00N 38°38' E 120°16'611.2
2018-Jul-05 11:30N 38°39' E 120°09'511.0
2018-Jul-05 11:00N 38°40' E 120°02'610.7
2018-Jul-05 10:28N 38°40' E 119°55'510.4
2018-Jul-05 09:58N 38°41' E 119°48'710.4
2018-Jul-05 09:16N 38°42' E 119°39'410.5
2018-Jul-05 08:55N 38°42' E 119°34'  
2018-Jul-03 01:57N 38°08' E 120°17'511.5
2018-Jul-03 01:30N 38°05' E 120°23'510.9
2018-Jul-03 01:00N 38°04' E 120°29'511.0
2018-Jul-03 00:30N 38°03' E 120°36'510.5
2018-Jul-03 00:00N 38°02' E 120°43'611.1
2018-Jul-02 23:30N 38°01' E 120°50'611.3
2018-Jul-02 22:59N 37°60' E 120°57'  

Dump ship's entire track history